Time;durP1;ratioP1;P1;durP2;ratioP2;P2;SDS_P1;SDS_P2;PMS_P1;PMS_P2;Temp;Humidity;BMP_temperature;BMP_pressure;BME280_temperature;BME280_humidity;BME280_pressure;Samples;Min_cycle;Max_cycle;Signal;HPM_P1;HPM_P2
2023/06/20 00:01:17;;;;;;;11.60;10.73;;;24.00;83.60;;;;;;5015748;28;20193;-91
2023/06/20 00:03:52;;;;;;;11.40;10.50;;;24.20;84.00;;;;;;5016531;28;20181;-90
2023/06/20 00:06:21;;;;;;;12.35;11.45;;;24.20;82.60;;;;;;5016338;28;20200;-89
2023/06/20 00:08:48;;;;;;;11.15;10.45;;;24.20;83.00;;;;;;5016117;28;20188;-86
2023/06/20 00:11:13;;;;;;;11.55;10.55;;;24.10;83.00;;;;;;5017333;28;20178;-89
2023/06/20 00:13:42;;;;;;;10.80;10.15;;;24.20;84.50;;;;;;5016405;28;20181;-88
2023/06/20 00:16:10;;;;;;;11.85;11.02;;;24.30;85.10;;;;;;5015491;28;20220;-89
2023/06/20 00:18:35;;;;;;;11.32;10.45;;;24.40;83.00;;;;;;5015622;28;20235;-88
2023/06/20 00:21:01;;;;;;;11.38;10.38;;;24.60;84.00;;;;;;5014422;28;20208;-89
2023/06/20 00:23:29;;;;;;;11.40;10.43;;;24.70;83.80;;;;;;5013659;28;20313;-88
2023/06/20 00:25:55;;;;;;;11.00;10.18;;;24.50;83.90;;;;;;5012486;28;20202;-87
2023/06/20 00:28:21;;;;;;;14.13;12.23;;;24.20;85.80;;;;;;5012457;28;20563;-91
2023/06/20 00:30:47;;;;;;;12.80;11.70;;;23.90;87.60;;;;;;5031632;28;20269;-93
2023/06/20 00:33:13;;;;;;;13.30;11.43;;;23.70;89.00;;;;;;5015835;28;20300;-90
2023/06/20 00:35:39;;;;;;;12.90;11.80;;;23.60;92.00;;;;;;5015883;28;20209;-90
2023/06/20 00:38:06;;;;;;;13.27;11.98;;;23.50;91.70;;;;;;5030498;28;20666;-90
2023/06/20 00:40:32;;;;;;;12.75;11.75;;;23.50;92.20;;;;;;5015548;28;20185;-90
2023/06/20 00:42:58;;;;;;;11.32;10.63;;;23.40;92.90;;;;;;5015371;28;20204;-91
2023/06/20 00:45:35;;;;;;;12.68;11.57;;;23.40;93.20;;;;;;5016890;28;20198;-92
2023/06/20 00:48:05;;;;;;;12.05;11.05;;;23.60;94.60;;;;;;5016431;28;20233;-91
2023/06/20 00:50:32;;;;;;;12.10;11.20;;;23.80;92.90;;;;;;5000415;28;20178;-91
2023/06/20 00:53:05;;;;;;;12.07;11.07;;;23.90;94.00;;;;;;4999821;28;20303;-92
2023/06/20 00:55:33;;;;;;;12.23;11.20;;;23.90;93.40;;;;;;5015860;28;20217;-91
2023/06/20 00:58:00;;;;;;;12.38;11.30;;;23.80;92.90;;;;;;5017660;28;20709;-91
2023/06/20 01:00:27;;;;;;;13.23;12.32;;;23.70;93.90;;;;;;5016301;28;20836;-91
2023/06/20 01:02:57;;;;;;;12.45;11.50;;;23.60;94.70;;;;;;5017577;28;20178;-91
2023/06/20 01:05:27;;;;;;;12.90;11.95;;;23.60;92.70;;;;;;5032990;28;20200;-91
2023/06/20 01:08:18;;;;;;;13.35;12.35;;;23.60;93.10;;;;;;5017787;28;20182;-93
2023/06/20 01:10:54;;;;;;;12.18;11.27;;;23.60;93.90;;;;;;5016828;28;20177;-92
2023/06/20 01:13:32;;;;;;;13.02;12.10;;;23.70;94.30;;;;;;5017214;28;20215;-91
2023/06/20 01:16:18;;;;;;;13.05;12.15;;;23.80;91.60;;;;;;5016490;28;20205;-94
2023/06/20 01:18:57;;;;;;;13.27;12.38;;;23.90;93.60;;;;;;5015286;28;20186;-92
2023/06/20 01:21:49;;;;;;;13.52;12.55;;;24.00;93.10;;;;;;5014655;28;20524;-92
2023/06/20 01:24:22;;;;;;;12.93;11.85;;;24.10;92.40;;;;;;4994381;28;20194;-91
2023/06/20 01:27:01;;;;;;;12.48;11.38;;;24.20;91.80;;;;;;4997429;28;20566;-91
2023/06/20 01:29:43;;;;;;;13.35;12.32;;;24.20;92.00;;;;;;4996659;28;20178;-92
2023/06/20 01:32:15;;;;;;;12.32;11.50;;;24.20;90.90;;;;;;4996814;28;20171;-93
2023/06/20 01:34:56;;;;;;;13.68;12.68;;;24.20;90.90;;;;;;4997634;28;20202;-91
2023/06/20 01:37:24;;;;;;;13.63;12.52;;;24.10;92.40;;;;;;5011079;28;20213;-91
2023/06/20 01:39:51;;;;;;;13.70;12.55;;;24.10;90.40;;;;;;5017693;28;20166;-92
2023/06/20 01:42:23;;;;;;;12.68;11.73;;;24.20;90.40;;;;;;5017201;28;20264;-92
2023/06/20 01:44:52;;;;;;;13.07;12.18;;;24.20;89.90;;;;;;5016614;28;20197;-90
2023/06/20 01:47:19;;;;;;;13.15;12.20;;;24.20;89.50;;;;;;5017292;28;20185;-91
2023/06/20 01:49:51;;;;;;;13.00;12.00;;;24.20;89.70;;;;;;5013841;28;20197;-92
2023/06/20 01:52:17;;;;;;;13.02;12.05;;;24.20;89.50;;;;;;5019046;28;20659;-91
2023/06/20 01:54:46;;;;;;;12.98;12.10;;;24.00;89.80;;;;;;5019938;28;20201;-91
2023/06/20 01:57:13;;;;;;;13.13;12.23;;;24.10;89.20;;;;;;5019242;28;20209;-91
2023/06/20 01:59:41;;;;;;;13.48;12.27;;;23.90;88.80;;;;;;5020640;28;20185;-92
2023/06/20 02:02:07;;;;;;;12.00;11.10;;;23.90;89.60;;;;;;5020190;28;20300;-91
2023/06/20 02:04:35;;;;;;;13.48;12.48;;;23.90;90.90;;;;;;5020665;28;20189;-91
2023/06/20 02:07:02;;;;;;;13.60;12.60;;;23.80;88.60;;;;;;5019733;28;20886;-91
2023/06/20 02:09:29;;;;;;;13.35;12.05;;;23.80;90.20;;;;;;5018996;28;20571;-91
2023/06/20 02:11:56;;;;;;;13.32;12.20;;;23.70;88.40;;;;;;5018514;28;20212;-91
2023/06/20 02:14:24;;;;;;;13.20;12.30;;;23.70;90.50;;;;;;5019705;28;20245;-90
2023/06/20 02:16:51;;;;;;;13.27;12.40;;;23.80;90.40;;;;;;5018658;28;20264;-92
2023/06/20 02:19:17;;;;;;;13.25;12.15;;;23.70;89.00;;;;;;5015975;28;20184;-91
2023/06/20 02:21:45;;;;;;;12.35;11.45;;;23.50;90.10;;;;;;5019125;28;20190;-90
2023/06/20 02:24:15;;;;;;;13.13;12.02;;;23.40;90.80;;;;;;5018223;28;20627;-91
2023/06/20 02:26:43;;;;;;;13.98;12.85;;;23.40;91.30;;;;;;5019531;28;20243;-92
2023/06/20 02:29:10;;;;;;;13.38;12.40;;;23.30;90.70;;;;;;5017973;28;20173;-91
2023/06/20 02:31:40;;;;;;;13.80;12.60;;;23.20;91.20;;;;;;5019681;28;20185;-92
2023/06/20 02:34:11;;;;;;;13.50;12.45;;;23.10;90.90;;;;;;5019311;28;20209;-90
2023/06/20 02:36:38;;;;;;;13.75;12.68;;;23.10;91.60;;;;;;5019368;28;20221;-92
2023/06/20 02:39:06;;;;;;;13.43;12.52;;;23.10;92.30;;;;;;5019313;28;20178;-91
2023/06/20 02:41:32;;;;;;;14.38;13.27;;;23.20;92.70;;;;;;5019480;28;20182;-91
2023/06/20 02:43:57;;;;;;;13.70;12.70;;;23.10;93.50;;;;;;5019285;28;20206;-93
2023/06/20 02:46:30;;;;;;;13.23;12.23;;;23.30;93.00;;;;;;5019714;28;20748;-90
2023/06/20 02:49:22;;;;;;;14.52;13.43;;;23.30;92.70;;;;;;5021942;28;20496;-91
2023/06/20 02:52:29;;;;;;;13.90;12.90;;;23.30;90.20;;;;;;5002190;28;20216;-92
2023/06/20 02:55:17;;;;;;;13.45;12.52;;;23.20;91.60;;;;;;5035453;28;20213;-91
2023/06/20 02:57:50;;;;;;;13.95;12.85;;;23.20;93.50;;;;;;5020167;28;20169;-90
2023/06/20 03:00:16;;;;;;;13.25;12.23;;;23.20;92.00;;;;;;5019552;28;20231;-90
2023/06/20 03:02:59;;;;;;;13.55;12.45;;;23.30;90.80;;;;;;5019754;28;20194;-90
2023/06/20 03:05:28;;;;;;;13.50;12.50;;;23.30;90.90;;;;;;5020033;28;20201;-90
2023/06/20 03:07:55;;;;;;;13.85;12.90;;;23.10;92.10;;;;;;5020193;28;20178;-91
2023/06/20 03:10:23;;;;;;;14.70;13.60;;;23.00;91.80;;;;;;5020153;28;20181;-91
2023/06/20 03:12:48;;;;;;;14.05;12.95;;;23.00;92.50;;;;;;5018437;28;20181;-91
2023/06/20 03:15:14;;;;;;;13.82;12.82;;;22.90;91.80;;;;;;5020551;28;20205;-91
2023/06/20 03:17:40;;;;;;;13.38;12.48;;;23.00;92.40;;;;;;5024723;28;20181;-91
2023/06/20 03:20:08;;;;;;;13.25;12.35;;;22.90;91.10;;;;;;5021342;28;20917;-91
2023/06/20 03:22:34;;;;;;;13.27;12.25;;;22.90;90.80;;;;;;5021623;28;20193;-91
2023/06/20 03:24:59;;;;;;;14.07;13.07;;;22.90;91.50;;;;;;5022149;28;20197;-91
2023/06/20 03:27:25;;;;;;;12.98;12.07;;;22.90;90.50;;;;;;5022911;28;20189;-91
2023/06/20 03:29:50;;;;;;;13.10;12.27;;;22.90;89.50;;;;;;5022239;28;20551;-91
2023/06/20 03:32:16;;;;;;;13.18;12.20;;;22.90;89.30;;;;;;5022202;28;20173;-91
2023/06/20 03:34:42;;;;;;;13.35;12.45;;;22.80;89.60;;;;;;5020923;28;20205;-92
2023/06/20 03:37:07;;;;;;;12.88;11.98;;;22.70;89.60;;;;;;5019025;28;20305;-91
2023/06/20 03:39:33;;;;;;;12.88;12.02;;;22.80;89.20;;;;;;5018949;28;20174;-93
2023/06/20 03:41:58;;;;;;;13.23;12.27;;;22.80;90.00;;;;;;5017773;28;20232;-92
2023/06/20 03:44:24;;;;;;;13.93;12.93;;;22.80;90.30;;;;;;5015118;28;20203;-91
2023/06/20 03:46:50;;;;;;;12.55;11.60;;;22.80;89.50;;;;;;4999610;28;20232;-91
2023/06/20 03:49:15;;;;;;;14.13;13.07;;;22.80;89.40;;;;;;5005238;28;20670;-91
2023/06/20 03:51:41;;;;;;;13.45;12.45;;;22.80;89.80;;;;;;5003806;28;20193;-90
2023/06/20 03:54:06;;;;;;;13.38;12.43;;;22.80;89.70;;;;;;4999723;28;20209;-90
2023/06/20 03:56:32;;;;;;;13.15;12.25;;;22.70;91.00;;;;;;4998593;28;20202;-91
2023/06/20 03:58:58;;;;;;;13.98;13.07;;;22.60;89.50;;;;;;4999181;28;20684;-90
2023/06/20 04:01:24;;;;;;;14.43;13.15;;;22.60;88.80;;;;;;4999477;28;20179;-90
2023/06/20 04:03:52;;;;;;;14.40;13.38;;;22.70;89.80;;;;;;4998783;28;20560;-89
2023/06/20 04:06:18;;;;;;;14.75;13.63;;;22.60;88.30;;;;;;5018842;28;20212;-92
2023/06/20 04:08:45;;;;;;;12.85;12.05;;;22.60;88.80;;;;;;5019004;28;20169;-91
2023/06/20 04:11:11;;;;;;;13.80;12.90;;;22.60;88.10;;;;;;5018294;28;20213;-91
2023/06/20 04:13:36;;;;;;;13.15;12.23;;;22.50;88.50;;;;;;5009723;28;20576;-92
2023/06/20 04:16:02;;;;;;;12.75;11.65;;;22.50;88.90;;;;;;5007391;28;20209;-91
2023/06/20 04:18:28;;;;;;;13.15;12.25;;;22.50;89.80;;;;;;5034047;28;20214;-91
2023/06/20 04:20:54;;;;;;;12.98;11.93;;;22.40;90.60;;;;;;5018661;28;20208;-92
2023/06/20 04:23:19;;;;;;;12.27;11.48;;;22.40;90.20;;;;;;5017799;28;20178;-89
2023/06/20 04:25:45;;;;;;;12.60;11.55;;;22.40;91.10;;;;;;5018352;28;20197;-90
2023/06/20 04:28:11;;;;;;;12.93;11.93;;;22.40;90.80;;;;;;5016195;28;20235;-90
2023/06/20 04:30:37;;;;;;;13.05;12.15;;;22.40;91.50;;;;;;5018528;28;20778;-90
2023/06/20 04:33:02;;;;;;;14.32;13.07;;;22.50;91.70;;;;;;5033839;28;20177;-89
2023/06/20 04:35:29;;;;;;;14.45;13.35;;;22.60;92.30;;;;;;5018334;28;20213;-88
2023/06/20 04:37:56;;;;;;;16.30;15.20;;;22.60;92.10;;;;;;5017568;28;20706;-89
2023/06/20 04:40:22;;;;;;;15.95;14.77;;;22.70;92.40;;;;;;5011574;28;20652;-88
2023/06/20 04:42:47;;;;;;;16.45;15.25;;;22.70;92.70;;;;;;5019665;28;20197;-89
2023/06/20 04:45:14;;;;;;;16.88;15.57;;;22.80;93.10;;;;;;5019967;28;20205;-90
2023/06/20 04:47:41;;;;;;;16.48;15.15;;;22.80;92.80;;;;;;5017123;28;20190;-90
2023/06/20 04:50:09;;;;;;;14.95;13.95;;;22.80;92.90;;;;;;5008125;28;20202;-89
2023/06/20 04:52:34;;;;;;;17.50;16.08;;;22.90;93.10;;;;;;5019765;28;20170;-90
2023/06/20 04:55:03;;;;;;;17.33;16.23;;;22.90;93.40;;;;;;5018865;28;20206;-88
2023/06/20 04:57:32;;;;;;;18.65;17.17;;;22.90;94.10;;;;;;5018012;28;20209;-90
2023/06/20 04:59:58;;;;;;;19.20;17.65;;;22.90;93.90;;;;;;5016749;28;20533;-90
2023/06/20 05:02:25;;;;;;;17.80;16.33;;;22.90;94.50;;;;;;5019330;28;20482;-88
2023/06/20 05:04:51;;;;;;;17.25;16.05;;;23.00;94.60;;;;;;5000033;28;20720;-89
2023/06/20 05:07:17;;;;;;;18.08;16.65;;;23.00;92.60;;;;;;4997973;28;20237;-89
2023/06/20 05:09:43;;;;;;;18.63;17.02;;;22.90;93.10;;;;;;5015154;28;20220;-90
2023/06/20 05:12:09;;;;;;;19.08;17.65;;;22.70;94.80;;;;;;5015595;28;20170;-89
2023/06/20 05:14:35;;;;;;;18.55;17.25;;;22.70;95.40;;;;;;5015608;28;20209;-88
2023/06/20 05:17:00;;;;;;;18.00;16.60;;;22.70;94.50;;;;;;5001891;28;20210;-90
2023/06/20 05:19:26;;;;;;;18.60;17.20;;;22.50;94.60;;;;;;4999966;28;20637;-88
2023/06/20 05:21:52;;;;;;;19.17;17.70;;;22.40;95.90;;;;;;5019014;28;20722;-91
2023/06/20 05:24:17;;;;;;;17.83;16.63;;;22.30;97.70;;;;;;5017141;28;20276;-89
2023/06/20 05:26:43;;;;;;;17.77;16.35;;;22.40;97.70;;;;;;5019009;28;20178;-88
2023/06/20 05:29:09;;;;;;;16.70;15.55;;;22.40;96.60;;;;;;5022371;28;20181;-88
2023/06/20 05:31:40;;;;;;;16.17;14.98;;;22.50;95.60;;;;;;5022273;28;20220;-90
2023/06/20 05:34:06;;;;;;;16.63;15.40;;;22.70;95.70;;;;;;5021827;28;20233;-90
2023/06/20 05:36:32;;;;;;;16.88;15.52;;;22.80;93.70;;;;;;5021554;28;20290;-89
2023/06/20 05:38:58;;;;;;;17.38;16.17;;;22.70;94.40;;;;;;5026063;28;20178;-91
2023/06/20 05:41:27;;;;;;;17.45;16.13;;;22.60;95.40;;;;;;5024941;28;20176;-89
2023/06/20 05:43:52;;;;;;;17.38;16.08;;;22.60;94.80;;;;;;5022392;28;20185;-89
2023/06/20 05:46:18;;;;;;;17.60;16.25;;;22.60;95.70;;;;;;5022479;28;20233;-90
2023/06/20 05:48:44;;;;;;;17.85;16.17;;;22.80;95.30;;;;;;5023502;28;20205;-88
2023/06/20 05:51:13;;;;;;;18.02;16.48;;;22.80;95.70;;;;;;5004758;28;20197;-90
2023/06/20 05:53:42;;;;;;;17.73;16.42;;;23.00;95.10;;;;;;5005493;28;20189;-90
2023/06/20 05:56:09;;;;;;;17.58;16.38;;;23.00;93.20;;;;;;5009671;28;20265;-90
2023/06/20 05:58:35;;;;;;;16.88;15.77;;;23.00;93.60;;;;;;5006561;28;20189;-90
2023/06/20 06:01:02;;;;;;;18.17;16.77;;;23.10;93.10;;;;;;5003031;28;20188;-89
2023/06/20 06:03:29;;;;;;;17.85;16.35;;;23.10;92.70;;;;;;5003024;28;20264;-89
2023/06/20 06:05:55;;;;;;;16.88;15.68;;;23.10;93.50;;;;;;4997762;28;20206;-89
2023/06/20 06:08:21;;;;;;;18.02;16.48;;;23.10;92.90;;;;;;5006028;28;20225;-88
2023/06/20 06:10:47;;;;;;;16.92;15.73;;;23.30;93.20;;;;;;5008635;28;20547;-89
2023/06/20 06:13:12;;;;;;;17.80;16.60;;;23.40;92.80;;;;;;5004341;28;20213;-89
2023/06/20 06:15:38;;;;;;;20.05;18.58;;;23.40;90.40;;;;;;5001702;28;20222;-88
2023/06/20 06:18:04;;;;;;;17.88;16.52;;;23.40;88.00;;;;;;5002873;28;20197;-86
2023/06/20 06:20:29;;;;;;;19.67;18.17;;;23.40;90.10;;;;;;5003760;28;20186;-87
2023/06/20 06:22:55;;;;;;;18.88;17.38;;;23.40;89.70;;;;;;5004554;28;20177;-88
2023/06/20 06:25:21;;;;;;;18.02;16.73;;;23.40;90.10;;;;;;5001018;28;20214;-88
2023/06/20 06:27:47;;;;;;;18.63;17.23;;;23.50;87.70;;;;;;5003918;28;20265;-88
2023/06/20 06:30:15;;;;;;;18.88;17.38;;;23.50;89.50;;;;;;5006198;28;20224;-87
2023/06/20 06:32:43;;;;;;;18.20;16.90;;;23.50;87.50;;;;;;5006859;28;20276;-89
2023/06/20 06:35:11;;;;;;;18.67;17.17;;;23.70;86.90;;;;;;4999656;28;20229;-89
2023/06/20 06:37:37;;;;;;;19.40;17.92;;;23.70;85.80;;;;;;5003645;28;21588;-87
2023/06/20 06:40:05;;;;;;;18.42;16.98;;;23.80;87.90;;;;;;5017265;28;20297;-87
2023/06/20 06:42:31;;;;;;;18.95;17.55;;;23.70;87.40;;;;;;5002394;28;20229;-88
2023/06/20 06:44:57;;;;;;;17.92;16.60;;;23.80;86.90;;;;;;4998391;28;20242;-88
2023/06/20 06:47:22;;;;;;;18.05;16.70;;;23.80;84.80;;;;;;5000336;28;20194;-88
2023/06/20 06:49:48;;;;;;;18.05;16.65;;;23.80;84.80;;;;;;5002015;28;20194;-88
2023/06/20 06:52:14;;;;;;;17.70;16.50;;;23.70;85.60;;;;;;5004345;28;20197;-87
2023/06/20 06:54:39;;;;;;;19.30;17.90;;;23.80;85.40;;;;;;5000053;28;20608;-87
2023/06/20 06:57:05;;;;;;;19.05;17.65;;;23.90;84.70;;;;;;4999630;28;20316;-87
2023/06/20 06:59:31;;;;;;;19.15;17.58;;;24.00;83.80;;;;;;5004023;28;20182;-88
2023/06/20 07:01:56;;;;;;;17.55;16.25;;;24.20;81.90;;;;;;5008618;28;20194;-91
2023/06/20 07:04:22;;;;;;;18.10;16.80;;;24.20;83.10;;;;;;5014718;28;20205;-88
2023/06/20 07:06:47;;;;;;;16.63;15.45;;;24.20;83.50;;;;;;5015013;28;20238;-88
2023/06/20 07:09:13;;;;;;;18.65;17.13;;;24.30;83.10;;;;;;5021527;28;20789;-88
2023/06/20 07:11:39;;;;;;;18.05;16.85;;;24.50;82.00;;;;;;5015668;28;20202;-88
2023/06/20 07:14:04;;;;;;;19.58;17.85;;;24.50;81.30;;;;;;5021922;28;20177;-88
2023/06/20 07:16:31;;;;;;;19.17;17.77;;;24.60;81.50;;;;;;5015385;28;20284;-87
2023/06/20 07:18:58;;;;;;;20.13;18.35;;;24.50;82.20;;;;;;5001926;28;20178;-87
2023/06/20 07:21:25;;;;;;;19.23;17.70;;;24.50;83.20;;;;;;5009018;28;20718;-86
2023/06/20 07:23:50;;;;;;;18.83;17.52;;;24.70;83.20;;;;;;5002399;28;20190;-87
2023/06/20 07:26:16;;;;;;;18.02;16.58;;;24.90;80.80;;;;;;4997050;28;21014;-87
2023/06/20 07:28:41;;;;;;;19.42;18.02;;;25.20;77.90;;;;;;5004664;28;20185;-85
2023/06/20 07:31:07;;;;;;;17.63;16.33;;;25.30;77.40;;;;;;4996924;28;20196;-87
2023/06/20 07:33:33;;;;;;;15.55;14.45;;;25.50;78.60;;;;;;4998346;28;20209;-87
2023/06/20 07:36:00;;;;;;;17.30;16.00;;;25.60;72.40;;;;;;4999941;28;20218;-86
2023/06/20 07:38:25;;;;;;;15.40;14.43;;;25.80;71.70;;;;;;5000313;28;20182;-84
2023/06/20 07:40:51;;;;;;;16.33;15.23;;;25.90;71.20;;;;;;4998436;28;20198;-86
2023/06/20 07:43:19;;;;;;;15.20;14.05;;;26.10;70.50;;;;;;5002905;28;20229;-87
2023/06/20 07:45:45;;;;;;;14.82;13.88;;;26.10;69.90;;;;;;5001196;28;20300;-86
2023/06/20 07:48:10;;;;;;;16.40;15.30;;;26.20;69.30;;;;;;5001804;28;20217;-87
2023/06/20 07:50:36;;;;;;;15.38;14.38;;;26.20;69.00;;;;;;5002578;28;20205;-86
2023/06/20 07:53:03;;;;;;;16.58;15.23;;;26.10;70.40;;;;;;5001761;28;20185;-87
2023/06/20 07:55:28;;;;;;;16.77;15.57;;;26.10;69.00;;;;;;4996050;28;20217;-86
2023/06/20 07:57:55;;;;;;;15.38;14.27;;;26.10;69.70;;;;;;5001857;28;20545;-86
2023/06/20 08:00:23;;;;;;;16.02;14.77;;;26.30;69.40;;;;;;5002134;28;20264;-84
2023/06/20 08:02:48;;;;;;;15.60;14.18;;;26.20;68.30;;;;;;4999973;28;20950;-87
2023/06/20 08:05:14;;;;;;;14.85;13.85;;;26.20;70.60;;;;;;4995614;28;20206;-86
2023/06/20 08:07:39;;;;;;;16.40;15.40;;;26.20;68.40;;;;;;4998996;28;20193;-86
2023/06/20 08:10:07;;;;;;;16.13;14.90;;;26.40;67.20;;;;;;4993965;28;20194;-85
2023/06/20 08:12:33;;;;;;;15.55;14.45;;;26.50;67.70;;;;;;4991643;28;20863;-84
2023/06/20 08:14:59;;;;;;;15.57;14.30;;;26.40;69.10;;;;;;5005010;28;20687;-86
2023/06/20 08:17:24;;;;;;;15.82;14.63;;;26.50;68.60;;;;;;5003537;28;20733;-86
2023/06/20 08:19:50;;;;;;;15.82;14.60;;;26.20;69.30;;;;;;4994836;28;20190;-86
2023/06/20 08:22:15;;;;;;;16.05;14.85;;;26.50;69.00;;;;;;4996438;28;20187;-84
2023/06/20 08:24:41;;;;;;;16.65;15.48;;;26.60;67.50;;;;;;4998661;28;20241;-87
2023/06/20 08:27:07;;;;;;;15.50;14.50;;;26.80;69.00;;;;;;5012864;28;20193;-85
2023/06/20 08:29:33;;;;;;;15.23;14.23;;;27.10;65.60;;;;;;5002353;28;20182;-87
2023/06/20 08:31:59;;;;;;;14.93;13.93;;;27.30;65.80;;;;;;5000874;28;20209;-86
2023/06/20 08:34:24;;;;;;;16.23;14.93;;;27.30;62.10;;;;;;4992783;28;20284;-86
2023/06/20 08:36:50;;;;;;;16.08;14.98;;;27.40;62.00;;;;;;4992447;28;20205;-86
2023/06/20 08:39:19;;;;;;;15.98;14.88;;;27.40;61.00;;;;;;5009193;28;20178;-85
2023/06/20 08:41:45;;;;;;;15.68;14.48;;;27.40;61.60;;;;;;5004023;28;20186;-85
2023/06/20 08:44:11;;;;;;;15.55;14.38;;;27.50;61.70;;;;;;5002731;28;20196;-84
2023/06/20 08:46:37;;;;;;;15.45;14.38;;;27.60;61.30;;;;;;5002069;28;20190;-82
2023/06/20 08:49:03;;;;;;;15.80;14.70;;;27.50;59.80;;;;;;5005051;28;20202;-87
2023/06/20 08:51:31;;;;;;;15.82;14.60;;;27.60;59.80;;;;;;5002231;28;20257;-86
2023/06/20 08:53:58;;;;;;;15.82;14.52;;;27.90;59.30;;;;;;4997635;28;20292;-86
2023/06/20 08:56:24;;;;;;;15.57;14.57;;;28.10;60.50;;;;;;5016035;28;20209;-85
2023/06/20 08:58:49;;;;;;;15.80;14.80;;;28.00;59.80;;;;;;5001293;28;20187;-85
2023/06/20 09:01:15;;;;;;;16.70;15.50;;;28.20;59.50;;;;;;4995036;28;20186;-85
2023/06/20 09:03:41;;;;;;;16.75;15.45;;;28.40;59.10;;;;;;5007489;28;20180;-85
2023/06/20 09:06:06;;;;;;;16.42;15.18;;;28.50;59.40;;;;;;5001870;28;20214;-86
2023/06/20 09:08:37;;;;;;;16.33;15.32;;;28.70;57.80;;;;;;5000544;28;20580;-86
2023/06/20 09:11:07;;;;;;;16.45;15.35;;;28.90;57.60;;;;;;4997037;28;20428;-85
2023/06/20 09:13:32;;;;;;;16.55;15.55;;;29.20;56.80;;;;;;5001938;28;20186;-85
2023/06/20 09:16:08;;;;;;;17.15;16.05;;;29.40;54.40;;;;;;4998398;28;20220;-86
2023/06/20 09:18:35;;;;;;;17.00;15.90;;;29.60;53.70;;;;;;4997626;28;20300;-85
2023/06/20 09:21:04;;;;;;;16.35;15.20;;;29.60;52.70;;;;;;5004270;28;20200;-86
2023/06/20 09:23:31;;;;;;;17.15;16.00;;;29.70;51.10;;;;;;4998958;28;20190;-87
2023/06/20 09:25:57;;;;;;;16.58;15.55;;;29.80;51.80;;;;;;4998506;28;20741;-87
2023/06/20 09:28:23;;;;;;;15.55;14.52;;;29.50;51.10;;;;;;5006520;28;20181;-87
2023/06/20 09:30:49;;;;;;;17.40;16.23;;;29.60;48.90;;;;;;5006036;28;20224;-86
2023/06/20 09:33:15;;;;;;;15.27;14.18;;;29.70;49.50;;;;;;5007424;28;20190;-86
2023/06/20 09:35:41;;;;;;;15.75;14.80;;;29.50;48.30;;;;;;5005013;28;20216;-86
2023/06/20 09:38:08;;;;;;;13.52;12.75;;;29.80;49.70;;;;;;5007851;28;20177;-84
2023/06/20 09:40:44;;;;;;;15.40;14.40;;;29.70;45.90;;;;;;5003830;28;20642;-85
2023/06/20 09:43:10;;;;;;;14.85;13.65;;;29.90;47.50;;;;;;4999606;28;20232;-85
2023/06/20 09:45:36;;;;;;;14.57;13.57;;;30.10;46.60;;;;;;5003269;28;20206;-84
2023/06/20 09:48:04;;;;;;;14.85;13.85;;;30.10;45.20;;;;;;5002247;28;20192;-85
2023/06/20 09:50:31;;;;;;;15.27;14.27;;;30.30;46.40;;;;;;4997609;28;21713;-86
2023/06/20 09:53:05;;;;;;;15.63;14.70;;;30.20;51.40;;;;;;4997410;28;20208;-85
2023/06/20 09:55:35;;;;;;;15.82;14.63;;;30.30;50.30;;;;;;4993473;28;20252;-85
2023/06/20 09:58:02;;;;;;;16.10;15.02;;;30.50;49.40;;;;;;4997404;28;20183;-85
2023/06/20 10:00:30;;;;;;;16.58;15.48;;;30.80;47.90;;;;;;4998027;28;20217;-86
2023/06/20 10:02:59;;;;;;;16.02;14.93;;;30.90;48.90;;;;;;4995513;28;20217;-87
2023/06/20 10:05:27;;;;;;;15.88;14.70;;;31.10;49.00;;;;;;5001929;28;20202;-86
2023/06/20 10:08:00;;;;;;;15.73;14.73;;;31.20;47.70;;;;;;4990775;28;20186;-86
2023/06/20 10:10:25;;;;;;;15.93;15.02;;;31.30;45.40;;;;;;4993792;28;21055;-86
2023/06/20 10:12:52;;;;;;;15.23;14.07;;;31.50;45.60;;;;;;4989286;28;20269;-87
2023/06/20 10:15:19;;;;;;;15.50;14.48;;;31.50;46.40;;;;;;4996803;28;20197;-86
2023/06/20 10:17:46;;;;;;;15.63;14.73;;;31.60;44.20;;;;;;5005500;28;20687;-87
2023/06/20 10:20:28;;;;;;;15.80;14.90;;;31.70;43.80;;;;;;5003297;28;20212;-87
2023/06/20 10:22:59;;;;;;;15.05;14.25;;;31.90;45.10;;;;;;5008461;28;20209;-86
2023/06/20 10:25:26;;;;;;;15.80;14.80;;;31.60;45.80;;;;;;5001077;28;20699;-85
2023/06/20 10:28:03;;;;;;;16.92;15.75;;;31.90;44.70;;;;;;5023046;28;20186;-86
2023/06/20 10:30:53;;;;;;;15.70;14.80;;;32.10;43.00;;;;;;5007978;28;20583;-86
2023/06/20 10:33:34;;;;;;;15.60;14.70;;;32.10;43.70;;;;;;4999474;28;20259;-87
2023/06/20 10:36:08;;;;;;;16.25;15.25;;;32.30;44.70;;;;;;5005105;28;20267;-86
2023/06/20 10:38:50;;;;;;;16.75;15.85;;;32.40;41.80;;;;;;4995616;28;20518;-86
2023/06/20 10:41:27;;;;;;;17.35;16.40;;;32.70;41.90;;;;;;4996706;28;20655;-87
2023/06/20 10:43:52;;;;;;;20.58;19.48;;;32.90;40.10;;;;;;5000848;28;20743;-86
2023/06/20 10:46:21;;;;;;;20.00;18.85;;;33.10;39.10;;;;;;4999815;28;20731;-87
2023/06/20 10:48:47;;;;;;;21.80;20.40;;;33.20;39.80;;;;;;5008356;28;20177;-87
2023/06/20 10:51:13;;;;;;;23.67;22.38;;;33.40;38.20;;;;;;4998632;28;20178;-86
2023/06/20 10:53:38;;;;;;;24.58;23.15;;;33.50;37.60;;;;;;5005726;28;20248;-85
2023/06/20 10:56:04;;;;;;;23.88;22.67;;;33.40;38.30;;;;;;4999642;28;20244;-86
2023/06/20 10:58:29;;;;;;;22.20;21.05;;;33.60;38.50;;;;;;4997881;28;20478;-84
2023/06/20 11:00:55;;;;;;;25.70;24.20;;;33.50;38.50;;;;;;4995833;28;21651;-87
2023/06/20 11:03:23;;;;;;;25.25;24.05;;;33.70;37.40;;;;;;5003018;28;20197;-85
2023/06/20 11:05:54;;;;;;;24.58;23.27;;;33.80;37.30;;;;;;4999450;28;20209;-86
2023/06/20 11:08:27;;;;;;;23.67;22.48;;;33.60;38.80;;;;;;5000822;28;20208;-86
2023/06/20 11:10:53;;;;;;;23.83;22.67;;;33.80;38.40;;;;;;4999931;28;20241;-85
2023/06/20 11:13:20;;;;;;;24.85;23.55;;;33.90;36.40;;;;;;5012346;28;20208;-86
2023/06/20 11:15:46;;;;;;;26.30;25.05;;;34.00;36.90;;;;;;4997460;28;20225;-87
2023/06/20 11:18:12;;;;;;;26.67;25.48;;;34.20;36.50;;;;;;5003599;28;20301;-86
2023/06/20 11:20:39;;;;;;;29.52;27.63;;;34.60;36.40;;;;;;5000390;28;20211;-87
2023/06/20 11:23:07;;;;;;;29.48;28.08;;;34.80;34.70;;;;;;5001076;28;20218;-85
2023/06/20 11:25:35;;;;;;;30.45;29.05;;;34.90;34.90;;;;;;4997817;28;20217;-86
2023/06/20 11:28:15;;;;;;;29.13;27.55;;;34.80;34.70;;;;;;5005757;28;20180;-87
2023/06/20 11:30:43;;;;;;;29.95;28.33;;;34.80;34.90;;;;;;5004490;28;20200;-86
2023/06/20 11:33:16;;;;;;;31.00;29.55;;;34.90;34.30;;;;;;5003470;28;20272;-87
2023/06/20 11:35:49;;;;;;;31.73;30.33;;;34.80;33.70;;;;;;4998481;28;20699;-86
2023/06/20 11:38:27;;;;;;;29.55;28.25;;;34.80;33.40;;;;;;5000462;28;20467;-86
2023/06/20 11:41:05;;;;;;;29.60;28.30;;;34.80;33.90;;;;;;4992541;28;20475;-87
2023/06/20 11:43:39;;;;;;;28.38;27.08;;;34.90;33.50;;;;;;4998363;28;20200;-86
2023/06/20 11:46:05;;;;;;;30.25;28.80;;;35.00;33.50;;;;;;4993479;28;20210;-86
2023/06/20 11:48:31;;;;;;;29.48;28.23;;;35.30;33.50;;;;;;4999798;28;20213;-86
2023/06/20 11:51:00;;;;;;;29.27;27.77;;;34.90;33.00;;;;;;4990941;28;20209;-88
2023/06/20 11:53:29;;;;;;;27.17;26.00;;;34.80;33.70;;;;;;4994238;28;20186;-87
2023/06/20 11:56:21;;;;;;;30.40;28.95;;;35.10;35.20;;;;;;4996957;28;20292;-90
2023/06/20 11:58:47;;;;;;;31.95;30.27;;;35.60;32.50;;;;;;4993590;28;20189;-87
2023/06/20 12:01:18;;;;;;;32.63;31.02;;;35.70;31.90;;;;;;4999475;28;20177;-87
2023/06/20 12:03:45;;;;;;;33.70;32.10;;;36.00;31.80;;;;;;4999788;28;20173;-87
2023/06/20 12:06:43;;;;;;;34.28;32.78;;;35.90;31.00;;;;;;4993392;28;20300;-86
2023/06/20 12:09:11;;;;;;;34.15;32.72;;;35.70;30.60;;;;;;4963320;28;20216;-87
2023/06/20 12:11:47;;;;;;;34.25;32.47;;;35.40;31.50;;;;;;4992505;28;20223;-86
2023/06/20 12:14:16;;;;;;;36.53;35.03;;;35.80;31.90;;;;;;5011482;28;20193;-87
2023/06/20 12:16:42;;;;;;;35.00;33.47;;;36.00;30.80;;;;;;4992773;28;20198;-87
2023/06/20 12:19:08;;;;;;;33.42;32.03;;;35.80;31.00;;;;;;5007333;28;20199;-87
2023/06/20 12:21:38;;;;;;;33.40;32.00;;;36.20;30.30;;;;;;4996757;28;20201;-87
2023/06/20 12:24:06;;;;;;;34.33;32.92;;;36.60;30.00;;;;;;5014147;28;20200;-87
2023/06/20 12:26:32;;;;;;;33.38;31.88;;;36.70;29.60;;;;;;4995996;28;20745;-87
2023/06/20 12:28:58;;;;;;;33.70;32.15;;;36.70;29.60;;;;;;5013699;28;20192;-88
2023/06/20 12:31:24;;;;;;;38.20;36.50;;;36.90;29.60;;;;;;5014600;28;20239;-87
2023/06/20 12:33:50;;;;;;;38.85;37.20;;;36.90;28.90;;;;;;5002448;28;20193;-88